Time;durP1;ratioP1;P1;durP2;ratioP2;P2;SDS_P1;SDS_P2;PMS_P1;PMS_P2;Temp;Humidity;BMP_temperature;BMP_pressure;BME280_temperature;BME280_humidity;BME280_pressure;Samples;Min_cycle;Max_cycle;Signal;HPM_P1;HPM_P2
2022/01/22 00:03:38;;;;;;;18.00;4.10;;;;;;;-0.33;84.96;99404.94;8496090;27;20096;-69
2022/01/22 00:07:39;;;;;;;13.18;3.38;;;;;;;-0.37;85.85;99414.41;8453781;28;20056;-69
2022/01/22 00:11:50;;;;;;;12.20;3.85;;;;;;;-0.36;87.33;99400.06;8468127;27;20055;-68
2022/01/22 00:15:51;;;;;;;14.80;3.20;;;;;;;-0.35;88.00;99407.00;8464891;27;20059;-69
2022/01/22 00:19:52;;;;;;;13.90;3.55;;;;;;;-0.39;88.72;99408.50;8465430;27;20063;-69
2022/01/22 00:23:56;;;;;;;21.33;4.05;;;;;;;-0.37;88.57;99422.34;8496206;27;20043;-69
2022/01/22 00:27:57;;;;;;;15.82;4.80;;;;;;;-0.31;89.28;99418.75;8445857;27;20051;-68
2022/01/22 00:31:58;;;;;;;13.57;4.05;;;;;;;-0.35;90.50;99414.97;8472272;27;20074;-68
2022/01/22 00:35:59;;;;;;;15.68;4.97;;;;;;;-0.33;91.66;99404.94;8482967;27;20043;-69
2022/01/22 00:40:00;;;;;;;21.30;5.07;;;;;;;-0.34;92.12;99411.28;8485297;28;20039;-68
2022/01/22 00:44:02;;;;;;;16.95;5.22;;;;;;;-0.27;91.92;99425.25;8484249;28;20063;-70
2022/01/22 00:48:03;;;;;;;17.85;4.93;;;;;;;-0.29;92.49;99427.31;8452836;28;20052;-69
2022/01/22 00:52:05;;;;;;;12.85;5.05;;;;;;;-0.27;93.35;99419.94;8467172;28;20092;-68
2022/01/22 00:56:05;;;;;;;13.98;4.88;;;;;;;-0.26;93.74;99437.44;8484251;28;20055;-68
2022/01/22 01:00:09;;;;;;;11.18;5.15;;;;;;;-0.26;93.86;99416.22;8467364;28;20043;-68
2022/01/22 01:04:11;;;;;;;16.90;4.65;;;;;;;-0.22;94.45;99422.69;8410030;28;20130;-68
2022/01/22 01:08:12;;;;;;;21.55;4.90;;;;;;;-0.29;94.97;99427.31;8492512;28;20047;-68
2022/01/22 01:12:13;;;;;;;12.13;4.88;;;;;;;-0.29;94.76;99427.31;8468850;28;20047;-68
2022/01/22 01:16:21;;;;;;;14.80;4.88;;;;;;;-0.27;95.08;99430.56;8475917;28;20130;-68
2022/01/22 01:37:22;;;;;;;10.02;4.60;;;;;;;-0.30;96.07;99417.72;8373905;28;20055;-69
2022/01/22 01:41:41;;;;;;;13.27;4.18;;;;;;;-0.28;96.04;99407.69;8381249;28;20056;-68
2022/01/22 01:45:42;;;;;;;14.90;4.05;;;;;;;-0.26;96.54;99417.03;8392929;28;20040;-68
2022/01/22 01:49:43;;;;;;;13.75;4.47;;;;;;;-0.23;96.63;99407.81;8385927;28;20049;-68
2022/01/22 01:53:56;;;;;;;9.75;4.03;;;;;;;-0.23;96.43;99411.28;8364920;28;20044;-70
2022/01/22 01:57:57;;;;;;;10.70;5.18;;;;;;;-0.21;97.06;99408.41;8359032;28;20095;-68
2022/01/22 02:01:58;;;;;;;15.55;4.70;;;;;;;-0.25;96.92;99420.50;8377543;28;20056;-69
2022/01/22 02:05:58;;;;;;;14.02;4.57;;;;;;;-0.21;96.94;99408.41;8375983;28;20144;-68
2022/01/22 02:10:00;;;;;;;13.75;4.47;;;;;;;-0.22;96.78;99412.91;8385215;28;20483;-68
2022/01/22 02:23:30;;;;;;;15.02;5.13;;;;;;;-0.21;97.08;99408.41;8438825;27;20115;-68
2022/01/22 02:27:06;;;;;;;15.85;6.03;;;;;;;-0.18;97.25;99418.53;8487710;27;20047;-68
2022/01/22 02:31:14;;;;;;;15.73;5.97;;;;;;;-0.13;96.83;99423.97;8499884;27;20574;-68
2022/01/22 02:35:29;;;;;;;13.57;7.05;;;;;;;-0.14;96.83;99432.97;8467600;27;20048;-68
2022/01/22 02:39:40;;;;;;;14.63;6.60;;;;;;;-0.13;97.07;99437.25;8439395;27;20127;-69
2022/01/22 02:43:41;;;;;;;15.50;7.22;;;;;;;-0.14;97.05;99435.63;8488104;27;20402;-69
2022/01/22 02:47:42;;;;;;;17.00;7.60;;;;;;;-0.12;97.25;99436.22;8481200;27;20134;-69
2022/01/22 02:51:43;;;;;;;14.35;6.88;;;;;;;-0.16;97.23;99427.09;8497467;27;20058;-69
2022/01/22 02:55:45;;;;;;;14.55;7.15;;;;;;;-0.11;97.39;99435.16;8466140;28;20387;-69
2022/01/22 02:59:46;;;;;;;13.50;7.22;;;;;;;-0.13;97.26;99439.91;8497245;27;20054;-68
2022/01/22 03:03:47;;;;;;;21.23;9.10;;;;;;;-0.10;97.02;99431.44;8497874;27;20043;-68
2022/01/22 03:07:53;;;;;;;17.35;8.13;;;;;;;-0.10;97.29;99447.38;8460719;27;20096;-68
2022/01/22 03:16:31;;;;;;;13.10;7.63;;;;;;;-0.10;96.89;99458.00;8471171;27;20055;-68
2022/01/22 03:29:16;;;;;;;14.27;8.57;;;;;;;-0.10;97.08;99473.94;8485833;27;20533;-69
2022/01/22 03:33:20;;;;;;;15.75;9.02;;;;;;;-0.11;97.14;99488.25;8446506;27;20052;-68
2022/01/22 03:37:25;;;;;;;14.18;8.73;;;;;;;0.00;96.49;99492.78;8472874;27;20043;-69
2022/01/22 03:41:26;;;;;;;16.40;8.52;;;;;;;-0.17;96.42;99500.59;8474704;27;20047;-68
2022/01/22 03:45:27;;;;;;;20.17;9.38;;;;;;;-0.20;96.93;99505.53;8473593;27;20138;-69
2022/01/22 03:49:28;;;;;;;18.45;9.60;;;;;;;-0.26;95.93;99506.47;8467167;27;20043;-68
2022/01/22 03:53:28;;;;;;;17.42;8.73;;;;;;;-0.36;96.19;99527.44;8480653;27;20138;-68
2022/01/22 03:57:29;;;;;;;19.65;9.13;;;;;;;-0.47;96.06;99543.09;8498142;27;20554;-68
2022/01/22 04:05:47;;;;;;;14.18;8.35;;;;;;;-0.56;96.00;99555.09;8478081;27;20047;-68
2022/01/22 04:09:50;;;;;;;13.95;7.70;;;;;;;-0.55;96.07;99551.41;8493595;27;20061;-69
2022/01/22 04:13:53;;;;;;;16.23;8.05;;;;;;;-0.58;95.39;99557.13;8463482;28;20048;-68
2022/01/22 04:30:37;;;;;;;16.85;7.55;;;;;;;-0.46;94.42;99581.06;8476483;27;20108;-69
2022/01/22 04:34:38;;;;;;;16.63;8.52;;;;;;;-0.51;94.28;99595.00;8489671;27;20055;-68
2022/01/22 04:38:40;;;;;;;12.30;7.55;;;;;;;-0.55;94.57;99593.84;8462983;28;20043;-68
2022/01/22 04:42:42;;;;;;;12.35;6.90;;;;;;;-0.60;94.42;99606.97;8463783;28;20077;-70
2022/01/22 04:55:04;;;;;;;13.43;7.38;;;;;;;-1.02;94.69;99607.91;8447517;28;20047;-68
2022/01/22 04:59:04;;;;;;;13.05;6.53;;;;;;;-1.07;94.96;99611.22;8463104;28;20485;-68
2022/01/22 05:03:06;;;;;;;14.18;6.40;;;;;;;-1.06;94.60;99622.63;8460951;28;20051;-68
2022/01/22 05:07:06;;;;;;;16.17;8.02;;;;;;;-1.17;94.65;99626.00;8462536;28;20102;-68
2022/01/22 05:11:08;;;;;;;13.30;7.78;;;;;;;-1.23;94.71;99637.47;8462250;28;20567;-68
2022/01/22 05:15:09;;;;;;;14.63;7.25;;;;;;;-1.18;94.60;99640.28;8464591;28;20417;-68
2022/01/22 05:19:16;;;;;;;17.33;8.85;;;;;;;-1.18;94.43;99642.94;8451258;28;20039;-69
2022/01/22 05:23:21;;;;;;;14.63;8.10;;;;;;;-1.16;94.21;99664.75;8467527;28;20050;-69
2022/01/22 05:27:56;;;;;;;17.48;9.27;;;;;;;-1.08;93.99;99672.41;8468690;28;20044;-69
2022/01/22 05:40:37;;;;;;;20.05;10.25;;;;;;;-1.08;93.89;99693.59;8460107;28;20052;-68
2022/01/22 05:44:38;;;;;;;20.23;10.48;;;;;;;-1.11;93.85;99699.34;8436894;28;20066;-68
2022/01/22 05:48:38;;;;;;;19.13;9.98;;;;;;;-1.11;93.64;99704.66;8467486;28;20131;-68
2022/01/22 05:52:53;;;;;;;18.17;9.88;;;;;;;-1.24;93.89;99712.72;8467282;28;20055;-67
2022/01/22 06:01:15;;;;;;;18.50;9.27;;;;;;;-1.28;94.09;99730.88;8310074;28;20313;-67
2022/01/22 06:05:16;;;;;;;20.90;9.88;;;;;;;-1.27;93.99;99738.59;8315914;28;20053;-68
2022/01/22 06:09:17;;;;;;;19.25;10.15;;;;;;;-1.30;93.92;99752.28;8336868;28;20046;-69
2022/01/22 06:13:20;;;;;;;23.45;10.25;;;;;;;-1.25;94.10;99761.44;8336956;28;20053;-68
2022/01/22 06:17:21;;;;;;;19.90;10.23;;;;;;;-1.29;94.13;99767.16;8334896;28;20050;-68
2022/01/22 06:21:22;;;;;;;24.67;11.55;;;;;;;-1.34;93.99;99769.66;8340693;28;20516;-68
2022/01/22 06:25:23;;;;;;;30.20;11.75;;;;;;;-1.34;93.88;99779.44;8335013;28;20055;-68
2022/01/22 06:29:23;;;;;;;32.97;12.02;;;;;;;-1.34;94.12;99785.56;8440465;28;20474;-68
2022/01/22 06:33:24;;;;;;;30.98;13.68;;;;;;;-1.39;93.92;99793.34;8435009;28;20048;-68
2022/01/22 06:37:25;;;;;;;30.35;12.88;;;;;;;-1.35;94.05;99797.19;8414047;28;20040;-69
2022/01/22 06:41:44;;;;;;;32.70;13.50;;;;;;;-1.33;93.66;99813.69;8445004;28;20611;-68
2022/01/22 06:45:45;;;;;;;;;;;;;;;-1.33;94.02;99813.69;8420797;28;20130;-67
2022/01/22 06:49:46;;;;;;;32.63;12.20;;;;;;;-1.39;93.71;99819.84;8444612;28;20375;-68
2022/01/22 06:53:48;;;;;;;32.53;11.40;;;;;;;-1.42;93.38;99830.84;8436300;28;20129;-68
2022/01/22 06:57:49;;;;;;;35.72;12.27;;;;;;;-1.54;93.58;99837.88;8444044;28;20036;-68
2022/01/22 07:01:54;;;;;;;27.58;11.93;;;;;;;-1.63;93.55;99844.41;8437175;28;20078;-68
2022/01/22 07:05:55;;;;;;;30.80;11.68;;;;;;;-1.59;93.81;99844.81;8434195;28;20093;-70
2022/01/22 07:09:55;;;;;;;30.50;12.00;;;;;;;-1.44;93.90;99859.41;8416709;28;20556;-68
2022/01/22 07:13:56;;;;;;;24.05;10.90;;;;;;;-1.31;93.50;99854.00;8370057;28;20044;-69
2022/01/22 07:17:57;;;;;;;29.75;10.60;;;;;;;-1.25;93.38;99872.72;8433437;28;20056;-67
2022/01/22 07:22:04;;;;;;;25.58;10.65;;;;;;;-1.10;92.85;99881.19;8448907;28;20071;-68
2022/01/22 07:26:06;;;;;;;21.02;9.98;;;;;;;-1.10;92.33;99881.19;8457807;28;20388;-69
2022/01/22 07:30:08;;;;;;;22.83;9.40;;;;;;;-1.09;92.25;99893.44;8445690;28;20048;-68
2022/01/22 07:34:08;;;;;;;26.00;10.02;;;;;;;-1.18;91.97;99894.72;8464284;28;20088;-69
2022/01/22 07:38:10;;;;;;;23.60;9.82;;;;;;;-1.19;92.11;99903.69;8411296;28;20039;-68
2022/01/22 07:42:10;;;;;;;20.02;9.40;;;;;;;-1.18;92.32;99894.72;8463672;28;20047;-68
2022/01/22 07:46:11;;;;;;;28.67;10.63;;;;;;;-1.23;92.15;99907.78;8463770;28;20104;-68
2022/01/22 07:50:12;;;;;;;21.77;9.43;;;;;;;-1.14;92.52;99911.81;8463047;28;20558;-68
2022/01/22 07:54:13;;;;;;;21.00;9.82;;;;;;;-0.95;91.39;99922.28;8463131;28;20047;-68
2022/01/22 07:58:14;;;;;;;22.55;9.68;;;;;;;-0.84;91.26;99928.75;8445416;28;20399;-68
2022/01/22 08:02:15;;;;;;;23.15;8.98;;;;;;;-0.73;90.41;99928.06;8467391;27;20104;-69
2022/01/22 08:06:16;;;;;;;23.05;9.98;;;;;;;-0.68;90.28;99930.88;8445190;28;20051;-69
2022/01/22 08:10:18;;;;;;;24.35;9.27;;;;;;;-0.75;89.54;99938.09;8462891;28;20092;-68
2022/01/22 08:14:19;;;;;;;23.63;9.77;;;;;;;-0.82;89.46;99932.00;8462396;28;20108;-69
2022/01/22 08:18:20;;;;;;;22.20;9.32;;;;;;;-0.90;89.35;99937.56;8462168;28;20039;-68
2022/01/22 08:22:21;;;;;;;19.42;9.27;;;;;;;-1.00;89.63;99939.84;8463760;28;20043;-68
2022/01/22 08:26:26;;;;;;;19.00;8.98;;;;;;;-1.03;90.05;99945.59;8443597;28;20071;-68
2022/01/22 08:30:34;;;;;;;24.83;10.00;;;;;;;-0.96;89.33;99951.69;8430390;28;20056;-68
2022/01/22 08:38:58;;;;;;;23.70;8.80;;;;;;;-0.75;88.45;99964.59;8430357;28;20044;-67
2022/01/22 08:42:59;;;;;;;20.27;8.43;;;;;;;-0.79;88.71;99958.06;8455135;28;20048;-68
2022/01/22 08:47:00;;;;;;;23.98;8.48;;;;;;;-0.69;88.07;99958.44;8480466;28;20079;-68
2022/01/22 08:51:01;;;;;;;19.15;7.95;;;;;;;-0.75;87.80;99975.22;8467090;27;20141;-68
2022/01/22 08:55:04;;;;;;;18.75;7.85;;;;;;;-0.72;87.09;99980.06;8499259;27;20059;-69
2022/01/22 08:59:05;;;;;;;18.50;7.30;;;;;;;-0.65;86.13;99988.81;8476519;27;20058;-69
2022/01/22 09:03:06;;;;;;;17.02;6.35;;;;;;;-0.70;85.65;99983.34;8479815;27;20058;-67
2022/01/22 09:07:08;;;;;;;23.00;7.32;;;;;;;-0.59;85.87;99985.31;8437943;27;20399;-69
2022/01/22 09:11:08;;;;;;;16.67;7.22;;;;;;;-0.59;85.03;99995.91;8479960;27;20040;-69
2022/01/22 09:15:10;;;;;;;16.55;7.07;;;;;;;-0.46;84.08;100001.13;8470130;28;20051;-69
2022/01/22 09:19:12;;;;;;;17.95;6.93;;;;;;;-0.44;83.10;100009.69;8470044;28;20062;-68
2022/01/22 09:23:13;;;;;;;15.05;5.05;;;;;;;-0.18;82.72;100013.16;8451616;28;20044;-68
2022/01/22 09:27:15;;;;;;;10.02;3.90;;;;;;;0.19;79.37;100003.44;8470126;28;20559;-67
2022/01/22 09:31:20;;;;;;;8.95;3.45;;;;;;;0.16;78.63;100010.00;8470037;28;20434;-68
2022/01/22 09:35:20;;;;;;;12.15;3.60;;;;;;;0.18;77.35;100015.91;8469380;28;20055;-69
2022/01/22 09:39:21;;;;;;;13.30;3.58;;;;;;;0.25;75.96;100027.28;8416881;28;20056;-68
2022/01/22 09:43:23;;;;;;;11.68;3.30;;;;;;;0.06;75.03;100030.91;8469139;28;20074;-68
2022/01/22 09:47:24;;;;;;;7.38;3.58;;;;;;;0.21;74.44;100034.06;8468864;28;20043;-70
2022/01/22 09:51:25;;;;;;;9.40;3.90;;;;;;;0.38;74.96;100040.44;8469211;28;20048;-69
2022/01/22 09:55:26;;;;;;;8.32;2.70;;;;;;;0.49;72.80;100046.88;8468174;28;20063;-69
2022/01/22 09:59:27;;;;;;;12.05;2.80;;;;;;;0.39;71.97;100051.88;8468777;28;20083;-69
2022/01/22 10:03:37;;;;;;;7.75;2.55;;;;;;;0.42;70.36;100062.09;8397418;28;20185;-68
2022/01/22 10:07:38;;;;;;;8.82;2.80;;;;;;;0.60;69.92;100070.06;8416196;28;20388;-68
2022/01/22 10:11:40;;;;;;;8.95;2.75;;;;;;;0.63;69.90;100068.81;8470130;27;20051;-69
2022/01/22 10:15:41;;;;;;;9.90;2.92;;;;;;;0.60;70.03;100074.56;8468166;28;20471;-69
2022/01/22 10:19:43;;;;;;;10.88;3.13;;;;;;;0.64;70.45;100081.06;8468527;28;20048;-68
2022/01/22 11:33:59;;;;;;;8.30;1.92;;;;;;;0.23;67.33;100148.88;8342745;28;20542;-71
2022/01/22 11:38:28;;;;;;;7.00;2.17;;;;;;;0.51;66.20;100156.44;8349965;28;20503;-71
2022/01/22 11:43:02;;;;;;;6.28;2.35;;;;;;;0.42;65.03;100163.84;8354923;28;20049;-71
2022/01/22 11:47:22;;;;;;;6.10;1.90;;;;;;;0.36;64.01;100163.94;8349201;28;20053;-71
2022/01/22 11:51:25;;;;;;;12.98;2.10;;;;;;;0.38;64.65;100178.59;8347364;28;20389;-71
2022/01/22 11:55:26;;;;;;;9.15;2.10;;;;;;;0.55;64.22;100184.19;8344368;28;20496;-71
2022/01/22 11:59:31;;;;;;;11.45;1.92;;;;;;;0.70;63.50;100178.53;8352888;28;20038;-71
2022/01/22 12:03:32;;;;;;;5.18;1.63;;;;;;;0.67;62.58;100197.59;8352213;28;20141;-71
2022/01/22 12:07:37;;;;;;;10.68;2.95;;;;;;;0.48;63.98;100210.00;8342273;28;20420;-71
2022/01/22 12:16:05;;;;;;;10.00;2.10;;;;;;;0.40;64.39;100203.13;8355464;28;20676;-71
2022/01/22 12:20:29;;;;;;;9.98;2.22;;;;;;;0.28;64.49;100215.47;8344956;28;20132;-71
2022/01/22 14:15:14;;;;;;;7.60;2.72;;;;;;;0.04;66.40;100311.88;8373400;28;20486;-72
2022/01/22 14:19:28;;;;;;;12.38;2.63;;;;;;;-0.05;66.56;100321.06;8349889;28;20049;-72
2022/01/22 14:23:30;;;;;;;12.00;2.72;;;;;;;-0.28;66.45;100326.06;8354249;28;20183;-71
2022/01/22 14:27:31;;;;;;;10.98;2.78;;;;;;;-0.36;65.82;100326.28;8336205;28;20752;-71
2022/01/22 14:31:44;;;;;;;11.10;2.42;;;;;;;-0.53;66.68;100329.38;8353972;28;20095;-72
2022/01/22 14:35:58;;;;;;;10.98;2.67;;;;;;;-0.68;67.09;100331.44;8342633;28;20055;-71
2022/01/22 14:48:23;;;;;;;5.13;2.20;;;;;;;-0.99;67.96;100339.19;8373776;28;20050;-72
2022/01/22 14:52:26;;;;;;;5.65;2.20;;;;;;;-1.10;68.55;100337.16;8346789;28;20416;-72
2022/01/22 14:56:27;;;;;;;10.52;2.40;;;;;;;-1.18;68.43;100345.31;8341845;28;20072;-73
2022/01/22 15:00:28;;;;;;;10.27;2.83;;;;;;;-1.25;68.74;100349.78;8337953;28;20495;-73
2022/01/22 15:04:29;;;;;;;8.13;2.30;;;;;;;-1.34;69.16;100352.63;8343577;28;20108;-72
2022/01/22 15:08:30;;;;;;;9.35;2.58;;;;;;;-1.42;69.46;100365.22;8339574;28;20054;-71
2022/01/22 15:12:33;;;;;;;11.48;2.88;;;;;;;-1.48;69.78;100372.13;8337079;28;20090;-71
2022/01/22 15:16:47;;;;;;;11.75;2.83;;;;;;;-1.55;69.54;100360.72;8312675;28;20508;-70
2022/01/22 15:20:48;;;;;;;7.88;2.55;;;;;;;-1.63;70.42;100374.13;8331640;28;20052;-72
2022/01/22 15:24:50;;;;;;;8.68;2.10;;;;;;;-1.72;70.31;100368.19;8320323;28;20540;-72
2022/01/22 15:28:53;;;;;;;6.45;2.53;;;;;;;-1.75;70.48;100381.03;8325289;28;20076;-72
2022/01/22 15:33:02;;;;;;;8.40;2.40;;;;;;;-1.84;70.76;100376.91;8311191;28;20083;-74
2022/01/22 15:37:06;;;;;;;9.07;2.95;;;;;;;-1.91;70.76;100391.97;8309291;28;20426;-72
2022/01/22 15:41:08;;;;;;;10.38;2.92;;;;;;;-1.96;70.79;100389.09;8321643;28;20504;-72
2022/01/22 15:45:09;;;;;;;17.83;2.50;;;;;;;-2.02;71.14;100390.69;8326580;28;20057;-73
2022/01/22 15:49:17;;;;;;;9.23;2.80;;;;;;;-2.06;71.35;100396.56;8315932;28;20054;-71
2022/01/22 15:53:18;;;;;;;6.55;2.38;;;;;;;-2.10;71.53;100398.78;8314727;28;20104;-71
2022/01/22 15:57:20;;;;;;;12.00;3.20;;;;;;;-2.15;71.73;100399.34;8346996;28;20124;-71
2022/01/22 16:01:21;;;;;;;11.93;2.78;;;;;;;-2.18;72.07;100402.41;8329734;28;20049;-71
2022/01/22 16:05:25;;;;;;;10.02;3.17;;;;;;;-2.23;71.85;100399.53;8314232;28;20103;-71
2022/01/22 16:09:29;;;;;;;14.02;4.05;;;;;;;-2.31;72.21;100404.94;8325282;28;20048;-71
2022/01/22 16:13:30;;;;;;;9.85;3.42;;;;;;;-2.37;72.64;100395.13;8326488;28;20053;-71
2022/01/22 16:17:31;;;;;;;19.48;4.47;;;;;;;-2.43;72.71;100403.84;8319707;28;20711;-71
2022/01/22 16:21:33;;;;;;;25.35;8.77;;;;;;;-2.50;73.06;100403.00;8344691;28;20049;-72
2022/01/22 16:25:34;;;;;;;31.55;10.40;;;;;;;-2.53;73.10;100403.38;8335951;28;20140;-71
2022/01/22 16:29:36;;;;;;;14.65;5.85;;;;;;;-2.59;73.36;100404.16;8348264;28;20156;-71
2022/01/22 16:33:37;;;;;;;13.90;5.00;;;;;;;-2.63;73.62;100424.03;8365160;28;20176;-71
2022/01/22 16:37:39;;;;;;;18.88;5.90;;;;;;;-2.69;73.44;100414.22;8358271;28;20422;-71
2022/01/22 16:41:40;;;;;;;16.95;5.28;;;;;;;-2.77;73.79;100432.88;8361508;28;20135;-72
2022/01/22 16:45:54;;;;;;;13.90;5.28;;;;;;;-2.83;74.18;100434.44;8347418;28;20512;-71
2022/01/22 16:58:45;;;;;;;22.45;6.40;;;;;;;-3.05;74.62;100441.56;8287766;28;20056;-71
2022/01/22 17:02:51;;;;;;;19.67;5.70;;;;;;;-3.15;74.82;100441.06;8302825;28;20053;-71
2022/01/22 17:06:54;;;;;;;25.83;6.22;;;;;;;-3.20;75.02;100443.44;8294239;28;20581;-70
2022/01/22 17:11:12;;;;;;;58.25;19.83;;;;;;;-3.24;75.32;100442.19;8294098;28;20050;-71
2022/01/22 17:15:13;;;;;;;85.63;25.90;;;;;;;-3.31;75.74;100446.56;8293187;28;20073;-70
2022/01/22 17:19:14;;;;;;;26.67;8.63;;;;;;;-3.36;75.70;100443.66;8277288;28;20058;-72
2022/01/22 17:23:15;;;;;;;27.77;8.20;;;;;;;-3.41;75.36;100451.31;8293143;28;20169;-72
2022/01/22 17:27:19;;;;;;;39.70;11.32;;;;;;;-3.46;75.79;100448.41;8293922;28;20069;-72
2022/01/22 17:31:21;;;;;;;37.95;12.02;;;;;;;-3.52;75.91;100449.16;8293720;28;20053;-72
2022/01/22 17:35:22;;;;;;;24.67;9.15;;;;;;;-3.58;76.03;100460.44;8315254;28;20054;-72
2022/01/22 17:39:25;;;;;;;23.17;7.68;;;;;;;-3.64;75.98;100469.09;8333143;28;20052;-71
2022/01/22 17:43:30;;;;;;;22.73;6.95;;;;;;;-3.72;76.29;100463.94;8329162;28;20053;-71
2022/01/22 17:47:32;;;;;;;22.25;7.05;;;;;;;-3.74;76.40;100471.19;8324733;28;20045;-72
2022/01/22 17:51:33;;;;;;;31.10;9.48;;;;;;;-3.77;76.71;100482.97;8326236;28;20073;-71
2022/01/22 17:55:35;;;;;;;40.22;11.82;;;;;;;-3.85;76.61;100475.94;8326062;28;20053;-71
2022/01/22 17:59:37;;;;;;;45.42;14.23;;;;;;;-3.91;76.74;100487.22;8326435;28;20049;-72
2022/01/22 18:03:47;;;;;;;47.75;15.70;;;;;;;-4.00;76.94;100483.03;8326239;28;20056;-71
2022/01/22 18:07:49;;;;;;;64.90;21.45;;;;;;;-4.06;76.81;100483.75;8311144;28;20199;-72
2022/01/22 18:11:52;;;;;;;59.67;20.65;;;;;;;-4.12;76.99;100478.38;8326265;28;20516;-72
2022/01/22 18:15:53;;;;;;;76.75;25.05;;;;;;;-4.24;77.28;100475.38;8342317;28;20053;-72
2022/01/22 18:19:55;;;;;;;74.47;25.15;;;;;;;-4.30;77.11;100481.38;8343360;28;20060;-72
2022/01/22 18:23:58;;;;;;;66.70;23.52;;;;;;;-4.41;77.34;100484.44;8361006;28;20080;-72
2022/01/22 18:27:59;;;;;;;70.20;25.08;;;;;;;-4.45;77.45;100496.34;8300207;28;20061;-72
2022/01/22 18:32:01;;;;;;;88.50;26.42;;;;;;;-4.50;77.39;100496.88;8330253;28;20060;-72
2022/01/22 18:36:02;;;;;;;88.13;28.02;;;;;;;-4.54;77.58;100494.75;8345479;28;20049;-70
2022/01/22 18:40:06;;;;;;;94.07;27.75;;;;;;;-4.56;77.37;100507.31;8363249;28;20061;-73
2022/01/22 18:44:11;;;;;;;122.47;36.08;;;;;;;-4.56;77.36;100507.31;8292121;28;20585;-73
2022/01/22 18:48:14;;;;;;;131.10;37.80;;;;;;;-4.57;77.29;100495.13;8327487;28;20145;-72
2022/01/22 18:52:16;;;;;;;122.82;35.58;;;;;;;-4.62;77.65;100503.56;8331804;28;20180;-71
2022/01/22 18:56:37;;;;;;;120.95;36.50;;;;;;;-4.61;77.61;100493.84;8329557;28;20053;-71
2022/01/22 19:00:42;;;;;;;119.05;35.08;;;;;;;-4.59;77.76;100497.09;8297371;28;20045;-71
2022/01/22 19:04:43;;;;;;;123.38;35.30;;;;;;;-4.68;77.62;100494.53;8248420;28;20093;-72
2022/01/22 19:08:44;;;;;;;126.47;36.70;;;;;;;-4.66;77.63;100498.81;8297882;28;20054;-71
2022/01/22 19:12:45;;;;;;;133.15;36.30;;;;;;;-4.61;77.83;100509.66;8296957;28;20046;-71
2022/01/22 19:16:47;;;;;;;126.10;35.30;;;;;;;-4.53;77.53;100497.22;8312207;28;20050;-71
2022/01/22 19:20:48;;;;;;;122.03;31.75;;;;;;;-4.51;77.75;100499.69;8297076;28;20064;-72
2022/01/22 19:25:14;;;;;;;185.00;48.97;;;;;;;-4.49;76.93;100487.94;8286145;28;20057;-71
2022/01/22 19:29:15;;;;;;;155.45;47.10;;;;;;;-4.47;77.36;100500.97;8300151;28;20071;-72
2022/01/22 19:33:17;;;;;;;157.85;44.83;;;;;;;-4.43;77.41;100502.25;8313073;28;20077;-72
2022/01/22 19:37:19;;;;;;;169.85;48.75;;;;;;;-4.38;77.64;100495.44;8351123;28;20052;-72
2022/01/22 19:41:25;;;;;;;156.20;47.95;;;;;;;-4.30;77.84;100502.47;8336067;28;20410;-71
2022/01/22 19:45:27;;;;;;;171.70;48.60;;;;;;;-4.22;77.77;100505.00;8332184;28;20057;-72
2022/01/22 19:49:28;;;;;;;149.77;43.58;;;;;;;-4.17;77.91;100513.22;8296052;28;20468;-72
2022/01/22 19:53:30;;;;;;;143.60;41.47;;;;;;;-4.09;77.97;100505.25;8306678;28;20511;-72
2022/01/22 19:57:34;;;;;;;147.30;38.95;;;;;;;-4.08;78.19;100504.25;8333031;28;20041;-72
2022/01/22 20:01:38;;;;;;;135.13;39.85;;;;;;;-4.03;78.24;100504.53;8330450;28;20172;-74
2022/01/22 20:05:39;;;;;;;121.10;34.13;;;;;;;-3.99;78.28;100505.78;8332609;28;20095;-73
2022/01/22 20:09:40;;;;;;;104.75;33.08;;;;;;;-3.92;78.07;100505.91;8287665;28;20057;-73
2022/01/22 20:13:41;;;;;;;95.32;28.58;;;;;;;-3.90;78.09;100504.69;8296835;28;20099;-74
2022/01/22 20:17:43;;;;;;;90.43;25.83;;;;;;;-3.85;78.55;100499.69;8326784;28;20041;-73
2022/01/22 20:21:44;;;;;;;85.30;24.35;;;;;;;-3.79;78.74;100494.69;8322700;28;20553;-73
2022/01/22 20:25:45;;;;;;;66.60;22.48;;;;;;;-3.72;78.59;100485.06;8330949;28;20049;-73
2022/01/22 20:29:46;;;;;;;67.63;20.65;;;;;;;-3.66;78.94;100494.88;8315748;28;20076;-73
2022/01/22 20:33:48;;;;;;;71.20;21.23;;;;;;;-3.64;78.57;100498.97;8327123;28;20493;-73
2022/01/22 20:37:50;;;;;;;66.18;19.67;;;;;;;-3.60;78.70;100499.44;8325121;28;20057;-73
2022/01/22 20:41:51;;;;;;;55.95;18.38;;;;;;;-3.59;78.71;100495.78;8339459;28;20057;-73
2022/01/22 20:45:52;;;;;;;51.38;15.82;;;;;;;-3.57;78.92;100484.03;8332560;28;20491;-73
2022/01/22 20:49:56;;;;;;;51.70;16.38;;;;;;;-3.53;78.97;100487.94;8331253;28;20050;-73
2022/01/22 20:53:58;;;;;;;47.30;15.07;;;;;;;-3.49;79.01;100496.34;8330798;28;20416;-73
2022/01/22 20:58:02;;;;;;;47.85;14.30;;;;;;;-3.43;79.07;100479.72;8330710;28;20360;-73
2022/01/22 21:02:07;;;;;;;46.53;13.45;;;;;;;-3.38;79.24;100487.91;8339170;28;20103;-73
2022/01/22 21:06:08;;;;;;;50.45;14.85;;;;;;;-3.37;79.26;100479.00;8328237;28;20079;-73
2022/01/22 21:10:09;;;;;;;40.58;11.52;;;;;;;-3.31;79.41;100488.81;8334065;28;20054;-73
2022/01/22 21:14:10;;;;;;;38.08;11.05;;;;;;;-3.28;79.71;100483.19;8328666;28;20524;-73
2022/01/22 21:18:12;;;;;;;41.65;12.07;;;;;;;-3.25;79.62;100488.09;8330718;28;20042;-73
2022/01/22 21:22:13;;;;;;;40.25;12.38;;;;;;;-3.25;79.72;100490.72;8329451;28;20052;-73
2022/01/22 21:26:16;;;;;;;37.55;11.25;;;;;;;-3.25;79.72;100498.66;8328078;28;20056;-73
2022/01/22 21:30:18;;;;;;;33.47;10.43;;;;;;;-3.21;79.92;100484.06;8329897;28;20050;-73
2022/01/22 21:34:21;;;;;;;38.38;9.90;;;;;;;-3.12;80.33;100487.44;8329063;28;20049;-73
2022/01/22 21:42:30;;;;;;;41.88;10.63;;;;;;;-3.12;80.29;100498.78;8359270;28;20050;-73
2022/01/22 21:46:31;;;;;;;37.25;10.27;;;;;;;-3.12;80.43;100506.72;8329329;28;20045;-73
2022/01/22 21:50:32;;;;;;;42.15;10.93;;;;;;;-3.13;80.38;100483.97;8328426;28;20092;-72
2022/01/22 21:54:34;;;;;;;54.72;12.25;;;;;;;-3.09;80.48;100493.16;8329332;28;20416;-72
2022/01/22 21:58:34;;;;;;;36.90;11.05;;;;;;;-3.07;80.65;100485.84;8294562;28;20133;-73
2022/01/22 22:02:36;;;;;;;45.25;12.13;;;;;;;-3.12;80.71;100501.44;8329763;28;20128;-72
2022/01/22 22:06:36;;;;;;;41.00;10.93;;;;;;;-3.17;81.06;100485.31;8327092;28;20060;-72
2022/01/22 22:10:37;;;;;;;39.67;10.65;;;;;;;-3.18;81.19;100483.72;8330335;28;20053;-72
2022/01/22 22:14:38;;;;;;;36.85;9.95;;;;;;;-3.14;81.16;100473.56;8326705;28;20110;-72
2022/01/22 22:18:41;;;;;;;29.15;10.00;;;;;;;-3.12;81.40;100461.81;8329635;28;20054;-72
2022/01/22 22:22:42;;;;;;;32.63;10.00;;;;;;;-3.13;81.35;100465.47;8326903;28;20061;-73
2022/01/22 22:26:43;;;;;;;35.53;10.43;;;;;;;-3.15;81.41;100459.53;8331187;28;20429;-72
2022/01/22 22:30:44;;;;;;;32.45;9.27;;;;;;;-3.12;81.44;100472.38;8331669;28;20109;-72
2022/01/22 22:34:45;;;;;;;31.20;10.13;;;;;;;-3.07;81.48;100485.84;8331972;28;20049;-72
2022/01/22 22:38:47;;;;;;;35.72;10.98;;;;;;;-3.04;81.31;100469.63;8331188;28;20128;-73
2022/01/22 22:42:53;;;;;;;28.65;9.70;;;;;;;-3.01;81.46;100484.28;8314584;28;20080;-74
2022/01/22 22:46:54;;;;;;;47.17;11.60;;;;;;;-3.00;81.38;100494.66;8353494;28;20052;-73
2022/01/22 22:50:55;;;;;;;33.75;9.95;;;;;;;-3.00;81.84;100497.31;8360997;28;20072;-73
2022/01/22 22:54:56;;;;;;;32.85;10.48;;;;;;;-3.01;81.85;100500.97;8330921;28;20136;-73
2022/01/22 22:58:57;;;;;;;35.78;10.32;;;;;;;-3.00;81.98;100497.31;8334516;28;20053;-73
2022/01/22 23:02:59;;;;;;;33.38;10.10;;;;;;;-2.97;82.09;100495.31;8332883;28;20044;-73
2022/01/22 23:07:00;;;;;;;29.58;9.30;;;;;;;-2.95;82.13;100498.56;8356897;28;20049;-73
2022/01/22 23:11:09;;;;;;;35.53;10.25;;;;;;;-2.87;82.30;100495.81;8353648;28;20446;-73
2022/01/22 23:15:09;;;;;;;36.25;10.30;;;;;;;-2.82;82.36;100493.44;8333971;28;20421;-73
2022/01/22 23:27:30;;;;;;;35.92;10.00;;;;;;;-2.80;81.94;100507.28;8340674;28;20179;-73
2022/01/22 23:31:36;;;;;;;33.70;10.45;;;;;;;-2.91;82.10;100489.28;8333154;28;20077;-73
2022/01/22 23:57:14;;;;;;;33.60;11.07;;;;;;;-3.28;83.01;100493.75;8353798;28;20488;-73
